sensor_id;sensor_type;location;lat;lon;timestamp;pressure;altitude;pressure_sealevel;temperature;humidity
64698;BME280;51124;53.394;-6.294;2023-04-01T00:00:25;99501.27;;;19.82;11.48
64698;BME280;51124;53.394;-6.294;2023-04-01T00:02:59;99507.28;;;19.62;11.58
64698;BME280;51124;53.394;-6.294;2023-04-01T00:05:37;99508.78;;;19.61;11.63
64698;BME280;51124;53.394;-6.294;2023-04-01T00:08:05;99512.15;;;19.76;11.69
64698;BME280;51124;53.394;-6.294;2023-04-01T00:10:33;99517.10;;;19.39;11.54
64698;BME280;51124;53.394;-6.294;2023-04-01T00:13:01;99516.19;;;19.97;11.55
64698;BME280;51124;53.394;-6.294;2023-04-01T00:15:28;99517.06;;;19.22;11.64
64698;BME280;51124;53.394;-6.294;2023-04-01T00:17:56;99518.14;;;19.06;11.87
64698;BME280;51124;53.394;-6.294;2023-04-01T00:20:24;99518.08;;;19.37;11.91
64698;BME280;51124;53.394;-6.294;2023-04-01T00:22:52;99518.33;;;19.50;11.68
64698;BME280;51124;53.394;-6.294;2023-04-01T00:25:20;99518.93;;;19.86;11.56
64698;BME280;51124;53.394;-6.294;2023-04-01T00:27:48;99520.93;;;19.77;11.81
64698;BME280;51124;53.394;-6.294;2023-04-01T00:30:16;99522.78;;;19.64;11.78
64698;BME280;51124;53.394;-6.294;2023-04-01T00:32:44;99521.76;;;17.28;11.45
64698;BME280;51124;53.394;-6.294;2023-04-01T00:35:11;99521.92;;;16.87;11.06
64698;BME280;51124;53.394;-6.294;2023-04-01T00:37:39;99518.95;;;17.24;10.69
64698;BME280;51124;53.394;-6.294;2023-04-01T00:40:11;99516.36;;;16.27;10.54
64698;BME280;51124;53.394;-6.294;2023-04-01T00:42:37;99515.61;;;17.90;10.31
64698;BME280;51124;53.394;-6.294;2023-04-01T00:45:29;99515.23;;;16.93;10.05
64698;BME280;51124;53.394;-6.294;2023-04-01T00:47:36;99516.46;;;16.01;10.05
64698;BME280;51124;53.394;-6.294;2023-04-01T00:50:04;99515.25;;;17.19;9.52
64698;BME280;51124;53.394;-6.294;2023-04-01T00:52:31;99513.59;;;16.99;9.59
64698;BME280;51124;53.394;-6.294;2023-04-01T00:55:01;99512.69;;;16.71;9.60
64698;BME280;51124;53.394;-6.294;2023-04-01T00:57:34;99515.00;;;16.67;9.66
64698;BME280;51124;53.394;-6.294;2023-04-01T01:00:03;99514.00;;;16.60;9.62
64698;BME280;51124;53.394;-6.294;2023-04-01T01:02:31;99515.40;;;16.77;9.52
64698;BME280;51124;53.394;-6.294;2023-04-01T01:05:00;99515.99;;;16.95;9.67
64698;BME280;51124;53.394;-6.294;2023-04-01T01:07:32;99512.49;;;16.72;9.59
64698;BME280;51124;53.394;-6.294;2023-04-01T01:10:00;99511.09;;;16.58;9.60
64698;BME280;51124;53.394;-6.294;2023-04-01T01:12:34;99510.18;;;16.81;9.46
64698;BME280;51124;53.394;-6.294;2023-04-01T01:15:09;99508.18;;;16.69;9.32
64698;BME280;51124;53.394;-6.294;2023-04-01T01:17:37;99511.16;;;16.56;9.36
64698;BME280;51124;53.394;-6.294;2023-04-01T01:20:14;99511.50;;;16.32;9.26
64698;BME280;51124;53.394;-6.294;2023-04-01T01:22:36;99514.96;;;16.52;9.22
64698;BME280;51124;53.394;-6.294;2023-04-01T01:25:10;99522.22;;;16.68;9.14
64698;BME280;51124;53.394;-6.294;2023-04-01T01:27:31;99525.52;;;16.20;8.91
64698;BME280;51124;53.394;-6.294;2023-04-01T01:30:14;99529.68;;;16.16;9.02
64698;BME280;51124;53.394;-6.294;2023-04-01T01:32:53;99531.20;;;17.51;8.85
64698;BME280;51124;53.394;-6.294;2023-04-01T01:35:04;99530.70;;;17.26;8.95
64698;BME280;51124;53.394;-6.294;2023-04-01T01:37:23;99532.19;;;16.91;9.03
64698;BME280;51124;53.394;-6.294;2023-04-01T01:39:54;99535.32;;;16.75;9.18
64698;BME280;51124;53.394;-6.294;2023-04-01T01:42:26;99537.40;;;17.17;9.12
64698;BME280;51124;53.394;-6.294;2023-04-01T01:44:54;99539.37;;;17.52;9.02
64698;BME280;51124;53.394;-6.294;2023-04-01T01:47:24;99537.60;;;16.43;9.17
64698;BME280;51124;53.394;-6.294;2023-04-01T01:49:53;99536.33;;;16.50;9.18
64698;BME280;51124;53.394;-6.294;2023-04-01T01:52:21;99536.07;;;16.47;9.18
64698;BME280;51124;53.394;-6.294;2023-04-01T01:54:49;99535.60;;;16.96;9.11
64698;BME280;51124;53.394;-6.294;2023-04-01T01:57:19;99538.45;;;16.37;9.25
64698;BME280;51124;53.394;-6.294;2023-04-01T01:59:48;99541.11;;;17.06;9.06
64698;BME280;51124;53.394;-6.294;2023-04-01T02:02:19;99539.62;;;17.22;9.06
64698;BME280;51124;53.394;-6.294;2023-04-01T02:04:47;99541.32;;;17.72;9.22
64698;BME280;51124;53.394;-6.294;2023-04-01T02:07:19;99539.44;;;16.83;9.05
64698;BME280;51124;53.394;-6.294;2023-04-01T02:09:49;99539.69;;;16.71;9.14
64698;BME280;51124;53.394;-6.294;2023-04-01T02:12:18;99548.84;;;21.07;9.44
64698;BME280;51124;53.394;-6.294;2023-04-01T02:14:51;99555.52;;;20.55;10.31
64698;BME280;51124;53.394;-6.294;2023-04-01T02:17:21;99559.04;;;16.71;10.30
64698;BME280;51124;53.394;-6.294;2023-04-01T02:19:52;99561.38;;;15.85;10.02
64698;BME280;51124;53.394;-6.294;2023-04-01T02:22:23;99561.47;;;16.79;9.52
64698;BME280;51124;53.394;-6.294;2023-04-01T02:24:53;99567.61;;;17.37;9.50
64698;BME280;51124;53.394;-6.294;2023-04-01T02:27:21;99571.35;;;15.78;9.46
64698;BME280;51124;53.394;-6.294;2023-04-01T02:29:49;99570.98;;;16.67;9.40
64698;BME280;51124;53.394;-6.294;2023-04-01T02:32:18;99569.83;;;16.55;9.20
64698;BME280;51124;53.394;-6.294;2023-04-01T02:34:46;99569.86;;;16.67;9.09
64698;BME280;51124;53.394;-6.294;2023-04-01T02:37:14;99572.85;;;16.82;9.06
64698;BME280;51124;53.394;-6.294;2023-04-01T02:39:42;99574.69;;;18.82;9.31
64698;BME280;51124;53.394;-6.294;2023-04-01T02:42:10;99580.96;;;18.68;9.67
64698;BME280;51124;53.394;-6.294;2023-04-01T02:44:37;99581.17;;;16.02;9.93
64698;BME280;51124;53.394;-6.294;2023-04-01T02:47:05;99582.93;;;21.08;9.71
64698;BME280;51124;53.394;-6.294;2023-04-01T02:49:32;99588.35;;;20.24;10.57
64698;BME280;51124;53.394;-6.294;2023-04-01T02:52:00;99588.86;;;19.66;10.93
64698;BME280;51124;53.394;-6.294;2023-04-01T02:54:28;99587.86;;;19.72;11.20
64698;BME280;51124;53.394;-6.294;2023-04-01T02:56:55;99592.56;;;19.34;11.39
64698;BME280;51124;53.394;-6.294;2023-04-01T02:59:23;99592.28;;;19.88;11.46
64698;BME280;51124;53.394;-6.294;2023-04-01T03:01:51;99594.38;;;19.64;11.35
64698;BME280;51124;53.394;-6.294;2023-04-01T03:04:19;99596.66;;;18.98;11.58
64698;BME280;51124;53.394;-6.294;2023-04-01T03:06:46;99599.32;;;19.07;11.58
64698;BME280;51124;53.394;-6.294;2023-04-01T03:09:15;99602.12;;;19.61;11.45
64698;BME280;51124;53.394;-6.294;2023-04-01T03:11:42;99606.46;;;19.55;11.76
64698;BME280;51124;53.394;-6.294;2023-04-01T03:14:10;99603.87;;;19.36;11.55
64698;BME280;51124;53.394;-6.294;2023-04-01T03:16:38;99609.54;;;18.79;11.73
64698;BME280;51124;53.394;-6.294;2023-04-01T03:19:05;99609.83;;;19.32;11.64
64698;BME280;51124;53.394;-6.294;2023-04-01T03:21:33;99616.03;;;18.89;11.96
64698;BME280;51124;53.394;-6.294;2023-04-01T03:24:01;99616.41;;;19.39;11.89
64698;BME280;51124;53.394;-6.294;2023-04-01T03:26:29;99617.35;;;19.62;11.87
64698;BME280;51124;53.394;-6.294;2023-04-01T03:28:57;99618.17;;;18.71;11.92
64698;BME280;51124;53.394;-6.294;2023-04-01T03:31:25;99622.65;;;18.83;11.88
64698;BME280;51124;53.394;-6.294;2023-04-01T03:33:53;99624.06;;;17.35;11.41
64698;BME280;51124;53.394;-6.294;2023-04-01T03:36:20;99624.93;;;16.37;11.33
64698;BME280;51124;53.394;-6.294;2023-04-01T03:38:48;99629.65;;;16.55;10.88
64698;BME280;51124;53.394;-6.294;2023-04-01T03:41:16;99632.18;;;16.47;10.55
64698;BME280;51124;53.394;-6.294;2023-04-01T03:43:44;99635.30;;;17.36;10.49
64698;BME280;51124;53.394;-6.294;2023-04-01T03:46:16;99634.76;;;16.30;10.27
64698;BME280;51124;53.394;-6.294;2023-04-01T03:48:43;99637.02;;;16.34;10.09
64698;BME280;51124;53.394;-6.294;2023-04-01T03:51:11;99635.76;;;16.46;9.85
64698;BME280;51124;53.394;-6.294;2023-04-01T03:53:38;99638.05;;;16.88;9.80
64698;BME280;51124;53.394;-6.294;2023-04-01T03:56:06;99637.75;;;16.79;9.68
64698;BME280;51124;53.394;-6.294;2023-04-01T03:58:34;99638.98;;;16.91;9.65
64698;BME280;51124;53.394;-6.294;2023-04-01T04:01:02;99639.47;;;16.52;9.24
64698;BME280;51124;53.394;-6.294;2023-04-01T04:03:30;99642.54;;;16.59;9.49
64698;BME280;51124;53.394;-6.294;2023-04-01T04:05:57;99645.19;;;16.38;9.57
64698;BME280;51124;53.394;-6.294;2023-04-01T04:08:24;99646.53;;;16.71;9.37
64698;BME280;51124;53.394;-6.294;2023-04-01T04:10:56;99646.89;;;17.27;9.19
64698;BME280;51124;53.394;-6.294;2023-04-01T04:13:24;99648.16;;;17.31;9.00
64698;BME280;51124;53.394;-6.294;2023-04-01T04:15:51;99649.31;;;16.42;9.07
64698;BME280;51124;53.394;-6.294;2023-04-01T04:18:18;99654.60;;;16.18;9.23
64698;BME280;51124;53.394;-6.294;2023-04-01T04:20:46;99655.94;;;16.22;9.23
64698;BME280;51124;53.394;-6.294;2023-04-01T04:23:14;99657.22;;;15.98;9.10
64698;BME280;51124;53.394;-6.294;2023-04-01T04:25:41;99657.64;;;16.08;9.00
64698;BME280;51124;53.394;-6.294;2023-04-01T04:28:08;99660.49;;;16.37;9.03
64698;BME280;51124;53.394;-6.294;2023-04-01T04:30:36;99661.95;;;16.82;8.93
64698;BME280;51124;53.394;-6.294;2023-04-01T04:33:03;99668.45;;;16.57;9.05
64698;BME280;51124;53.394;-6.294;2023-04-01T04:35:30;99669.45;;;16.30;9.07
64698;BME280;51124;53.394;-6.294;2023-04-01T04:37:57;99672.52;;;16.80;9.11
64698;BME280;51124;53.394;-6.294;2023-04-01T04:40:25;99672.84;;;16.34;9.11
64698;BME280;51124;53.394;-6.294;2023-04-01T04:42:52;99675.63;;;16.27;9.16
64698;BME280;51124;53.394;-6.294;2023-04-01T04:45:19;99676.01;;;16.82;8.85
64698;BME280;51124;53.394;-6.294;2023-04-01T04:47:47;99683.73;;;16.49;9.10
64698;BME280;51124;53.394;-6.294;2023-04-01T04:50:14;99685.75;;;16.94;9.07
64698;BME280;51124;53.394;-6.294;2023-04-01T04:52:41;99686.63;;;18.03;8.88
64698;BME280;51124;53.394;-6.294;2023-04-01T04:55:09;99690.01;;;16.68;8.83
64698;BME280;51124;53.394;-6.294;2023-04-01T04:57:36;99694.89;;;16.78;8.71
64698;BME280;51124;53.394;-6.294;2023-04-01T05:00:05;99695.90;;;16.99;8.66
64698;BME280;51124;53.394;-6.294;2023-04-01T05:02:32;99697.41;;;16.72;8.68
64698;BME280;51124;53.394;-6.294;2023-04-01T05:05:00;99702.78;;;17.01;8.66
64698;BME280;51124;53.394;-6.294;2023-04-01T05:07:27;99706.45;;;16.64;8.92
64698;BME280;51124;53.394;-6.294;2023-04-01T05:09:55;99711.47;;;16.64;9.15
64698;BME280;51124;53.394;-6.294;2023-04-01T05:12:22;99711.43;;;16.85;8.89
64698;BME280;51124;53.394;-6.294;2023-04-01T05:14:49;99717.90;;;16.23;8.86
64698;BME280;51124;53.394;-6.294;2023-04-01T05:17:17;99722.29;;;17.50;8.86
64698;BME280;51124;53.394;-6.294;2023-04-01T05:19:44;99723.28;;;17.14;8.90
64698;BME280;51124;53.394;-6.294;2023-04-01T05:22:11;99728.62;;;17.01;8.69
64698;BME280;51124;53.394;-6.294;2023-04-01T05:24:39;99730.79;;;16.12;8.66
64698;BME280;51124;53.394;-6.294;2023-04-01T05:27:06;99733.27;;;17.20;8.58
64698;BME280;51124;53.394;-6.294;2023-04-01T05:29:34;99738.34;;;16.61;8.60
64698;BME280;51124;53.394;-6.294;2023-04-01T05:32:02;99741.00;;;16.87;8.54
64698;BME280;51124;53.394;-6.294;2023-04-01T05:34:29;99741.09;;;17.82;8.16
64698;BME280;51124;53.394;-6.294;2023-04-01T05:36:56;99749.86;;;19.81;8.64
64698;BME280;51124;53.394;-6.294;2023-04-01T05:39:24;99753.39;;;19.07;8.93
64698;BME280;51124;53.394;-6.294;2023-04-01T05:41:52;99758.89;;;17.71;9.07
64698;BME280;51124;53.394;-6.294;2023-04-01T05:44:19;99759.87;;;21.62;9.03
64698;BME280;51124;53.394;-6.294;2023-04-01T05:46:47;99769.43;;;20.62;9.63
64698;BME280;51124;53.394;-6.294;2023-04-01T05:49:15;99776.01;;;20.05;10.19
64698;BME280;51124;53.394;-6.294;2023-04-01T05:51:43;99778.04;;;19.45;10.86
64698;BME280;51124;53.394;-6.294;2023-04-01T05:54:10;99779.92;;;19.16;10.79
64698;BME280;51124;53.394;-6.294;2023-04-01T05:56:38;99784.46;;;19.28;10.65
64698;BME280;51124;53.394;-6.294;2023-04-01T05:59:02;99787.68;;;20.14;10.52
64698;BME280;51124;53.394;-6.294;2023-04-01T06:01:36;99793.40;;;20.09;10.43
64698;BME280;51124;53.394;-6.294;2023-04-01T06:04:14;99797.33;;;20.59;10.52
64698;BME280;51124;53.394;-6.294;2023-04-01T06:06:38;99802.90;;;19.84;10.71
64698;BME280;51124;53.394;-6.294;2023-04-01T06:09:15;99809.37;;;19.36;10.71
64698;BME280;51124;53.394;-6.294;2023-04-01T06:11:46;99810.30;;;19.66;10.81
64698;BME280;51124;53.394;-6.294;2023-04-01T06:14:24;99815.81;;;19.51;10.94
64698;BME280;51124;53.394;-6.294;2023-04-01T06:16:51;99816.80;;;20.43;10.87
64698;BME280;51124;53.394;-6.294;2023-04-01T06:19:24;99823.65;;;19.66;10.82
64698;BME280;51124;53.394;-6.294;2023-04-01T06:22:09;99828.85;;;20.31;10.53
64698;BME280;51124;53.394;-6.294;2023-04-01T06:24:28;99834.00;;;19.83;10.65
64698;BME280;51124;53.394;-6.294;2023-04-01T06:26:52;99840.05;;;20.19;10.68
64698;BME280;51124;53.394;-6.294;2023-04-01T06:29:31;99845.12;;;19.86;10.63
64698;BME280;51124;53.394;-6.294;2023-04-01T06:32:05;99849.26;;;20.04;10.62
64698;BME280;51124;53.394;-6.294;2023-04-01T06:34:37;99852.88;;;18.38;10.73
64698;BME280;51124;53.394;-6.294;2023-04-01T06:37:08;99854.71;;;17.74;10.11
64698;BME280;51124;53.394;-6.294;2023-04-01T06:39:39;99861.31;;;17.03;9.77
64698;BME280;51124;53.394;-6.294;2023-04-01T06:43:05;99865.02;;;18.42;9.44
64698;BME280;51124;53.394;-6.294;2023-04-01T06:44:31;99872.06;;;17.67;9.23
64698;BME280;51124;53.394;-6.294;2023-04-01T06:46:58;99876.81;;;17.59;9.14
64698;BME280;51124;53.394;-6.294;2023-04-01T06:49:40;99883.18;;;16.64;9.12
64698;BME280;51124;53.394;-6.294;2023-04-01T06:52:13;99883.35;;;17.46;8.96
64698;BME280;51124;53.394;-6.294;2023-04-01T06:54:33;99889.75;;;17.50;8.81
64698;BME280;51124;53.394;-6.294;2023-04-01T06:57:03;99898.19;;;17.40;9.02
64698;BME280;51124;53.394;-6.294;2023-04-01T06:59:30;99899.69;;;16.84;8.76
64698;BME280;51124;53.394;-6.294;2023-04-01T07:01:58;99905.42;;;17.56;8.39
64698;BME280;51124;53.394;-6.294;2023-04-01T07:04:25;99909.32;;;17.40;8.59
64698;BME280;51124;53.394;-6.294;2023-04-01T07:06:53;99915.23;;;17.02;8.64
64698;BME280;51124;53.394;-6.294;2023-04-01T07:09:19;99918.37;;;16.98;8.49
64698;BME280;51124;53.394;-6.294;2023-04-01T07:11:45;99924.46;;;17.55;8.26
64698;BME280;51124;53.394;-6.294;2023-04-01T07:14:22;99929.41;;;17.87;8.24
64698;BME280;51124;53.394;-6.294;2023-04-01T07:16:50;99933.32;;;17.89;8.18
64698;BME280;51124;53.394;-6.294;2023-04-01T07:19:20;99939.43;;;17.46;8.34
64698;BME280;51124;53.394;-6.294;2023-04-01T07:21:47;99946.30;;;17.36;8.27
64698;BME280;51124;53.394;-6.294;2023-04-01T07:24:16;99951.67;;;17.20;8.25
64698;BME280;51124;53.394;-6.294;2023-04-01T07:26:43;99954.94;;;17.66;8.20
64698;BME280;51124;53.394;-6.294;2023-04-01T07:29:17;99961.14;;;16.60;8.35
64698;BME280;51124;53.394;-6.294;2023-04-01T07:32:09;99967.02;;;17.08;8.11
64698;BME280;51124;53.394;-6.294;2023-04-01T07:34:26;99966.37;;;17.24;7.94
64698;BME280;51124;53.394;-6.294;2023-04-01T07:37:05;99981.45;;;17.98;8.20
64698;BME280;51124;53.394;-6.294;2023-04-01T07:39:36;99985.40;;;17.00;8.27
64698;BME280;51124;53.394;-6.294;2023-04-01T07:42:11;99989.83;;;17.67;8.11
64698;BME280;51124;53.394;-6.294;2023-04-01T07:44:41;99996.34;;;17.51;8.12
64698;BME280;51124;53.394;-6.294;2023-04-01T07:47:20;100001.99;;;17.66;8.03
64698;BME280;51124;53.394;-6.294;2023-04-01T07:49:44;100006.31;;;16.97;8.04
64698;BME280;51124;53.394;-6.294;2023-04-01T07:52:16;100014.38;;;17.81;7.92
64698;BME280;51124;53.394;-6.294;2023-04-01T07:54:47;100020.55;;;17.56;8.02
64698;BME280;51124;53.394;-6.294;2023-04-01T07:57:16;100026.91;;;17.70;8.15
64698;BME280;51124;53.394;-6.294;2023-04-01T07:59:48;100033.32;;;17.11;8.31
64698;BME280;51124;53.394;-6.294;2023-04-01T08:02:23;100035.19;;;18.44;7.89
64698;BME280;51124;53.394;-6.294;2023-04-01T08:04:56;100038.87;;;16.93;8.08
64698;BME280;51124;53.394;-6.294;2023-04-01T08:07:16;100047.43;;;18.37;8.15
64698;BME280;51124;53.394;-6.294;2023-04-01T08:09:50;100056.13;;;17.05;8.52
64698;BME280;51124;53.394;-6.294;2023-04-01T08:12:17;100061.02;;;17.54;8.66
64698;BME280;51124;53.394;-6.294;2023-04-01T08:14:44;100065.32;;;17.03;8.58
64698;BME280;51124;53.394;-6.294;2023-04-01T08:17:04;100069.43;;;17.62;8.56
64698;BME280;51124;53.394;-6.294;2023-04-01T08:19:35;100074.14;;;18.10;8.39
64698;BME280;51124;53.394;-6.294;2023-04-01T08:22:08;100082.04;;;17.04;8.33
64698;BME280;51124;53.394;-6.294;2023-04-01T08:24:36;100087.77;;;17.50;8.50
64698;BME280;51124;53.394;-6.294;2023-04-01T08:27:06;100095.86;;;17.55;8.53
64698;BME280;51124;53.394;-6.294;2023-04-01T08:29:40;100100.07;;;17.06;8.49
64698;BME280;51124;53.394;-6.294;2023-04-01T08:32:09;100105.12;;;16.16;8.64
64698;BME280;51124;53.394;-6.294;2023-04-01T08:34:37;100110.89;;;16.81;8.34
64698;BME280;51124;53.394;-6.294;2023-04-01T08:37:04;100115.84;;;19.36;8.53
64698;BME280;51124;53.394;-6.294;2023-04-01T08:39:30;100121.34;;;19.85;9.02
64698;BME280;51124;53.394;-6.294;2023-04-01T08:42:09;100126.38;;;18.26;9.53
64698;BME280;51124;53.394;-6.294;2023-04-01T08:44:37;100130.58;;;18.19;9.28
64698;BME280;51124;53.394;-6.294;2023-04-01T08:49:32;100139.92;;;20.02;9.98
64698;BME280;51124;53.394;-6.294;2023-04-01T08:52:11;100148.60;;;20.39;10.30
64698;BME280;51124;53.394;-6.294;2023-04-01T08:54:34;100156.28;;;20.78;10.55
64698;BME280;51124;53.394;-6.294;2023-04-01T08:57:00;100159.13;;;19.61;10.78
64698;BME280;51124;53.394;-6.294;2023-04-01T08:59:38;100164.17;;;19.76;10.82
64698;BME280;51124;53.394;-6.294;2023-04-01T09:02:14;100168.92;;;20.68;10.70
64698;BME280;51124;53.394;-6.294;2023-04-01T09:04:45;100172.23;;;20.15;10.83
64698;BME280;51124;53.394;-6.294;2023-04-01T09:07:12;100175.97;;;20.44;10.88
64698;BME280;51124;53.394;-6.294;2023-04-01T09:09:47;100179.10;;;20.17;10.96
64698;BME280;51124;53.394;-6.294;2023-04-01T09:14:41;100189.74;;;20.67;10.82
64698;BME280;51124;53.394;-6.294;2023-04-01T09:18:02;100195.77;;;20.33;10.79
64698;BME280;51124;53.394;-6.294;2023-04-01T09:19:34;100201.51;;;19.94;10.99
64698;BME280;51124;53.394;-6.294;2023-04-01T09:22:06;100204.20;;;19.62;11.20
64698;BME280;51124;53.394;-6.294;2023-04-01T09:25:06;100203.24;;;19.78;11.04
64698;BME280;51124;53.394;-6.294;2023-04-01T09:27:04;100211.40;;;20.06;11.02
64698;BME280;51124;53.394;-6.294;2023-04-01T09:29:54;100214.22;;;20.78;10.79
64698;BME280;51124;53.394;-6.294;2023-04-01T09:32:13;100219.85;;;19.64;11.10
64698;BME280;51124;53.394;-6.294;2023-04-01T09:34:48;100223.96;;;20.20;11.50
64698;BME280;51124;53.394;-6.294;2023-04-01T09:37:18;100229.72;;;17.82;12.11
64698;BME280;51124;53.394;-6.294;2023-04-01T09:39:35;100233.90;;;17.08;11.66
64698;BME280;51124;53.394;-6.294;2023-04-01T09:42:14;100228.99;;;18.00;10.42
64698;BME280;51124;53.394;-6.294;2023-04-01T09:44:34;100230.79;;;18.27;10.23
64698;BME280;51124;53.394;-6.294;2023-04-01T09:47:10;100230.34;;;19.00;9.61
64698;BME280;51124;53.394;-6.294;2023-04-01T09:49:43;100237.32;;;18.63;9.74
64698;BME280;51124;53.394;-6.294;2023-04-01T09:52:10;100238.64;;;17.89;9.33
64698;BME280;51124;53.394;-6.294;2023-04-01T09:54:39;100243.28;;;21.80;9.07
64698;BME280;51124;53.394;-6.294;2023-04-01T09:58:23;100243.54;;;16.83;9.40
64698;BME280;51124;53.394;-6.294;2023-04-01T09:59:47;100246.90;;;18.63;9.01
64698;BME280;51124;53.394;-6.294;2023-04-01T10:02:22;100252.08;;;18.44;8.72
64698;BME280;51124;53.394;-6.294;2023-04-01T10:05:51;100256.18;;;19.23;8.65
64698;BME280;51124;53.394;-6.294;2023-04-01T10:07:16;100261.21;;;19.15;8.33
64698;BME280;51124;53.394;-6.294;2023-04-01T10:13:40;100270.16;;;18.95;8.51
64698;BME280;51124;53.394;-6.294;2023-04-01T10:14:25;100276.26;;;18.23;8.73
64698;BME280;51124;53.394;-6.294;2023-04-01T10:17:07;100276.12;;;19.50;8.01
64698;BME280;51124;53.394;-6.294;2023-04-01T10:19:25;100281.40;;;19.32;7.90
64698;BME280;51124;53.394;-6.294;2023-04-01T10:22:04;100289.45;;;23.32;7.97
64698;BME280;51124;53.394;-6.294;2023-04-01T10:24:31;100294.98;;;23.03;8.84
64698;BME280;51124;53.394;-6.294;2023-04-01T10:26:57;100302.19;;;17.71;9.29
64698;BME280;51124;53.394;-6.294;2023-04-01T10:29:42;100302.42;;;18.50;8.69
64698;BME280;51124;53.394;-6.294;2023-04-01T10:31:56;100307.02;;;18.27;8.78
64698;BME280;51124;53.394;-6.294;2023-04-01T10:34:25;100310.49;;;18.73;8.34
64698;BME280;51124;53.394;-6.294;2023-04-01T10:36:52;100318.50;;;19.23;8.02
64698;BME280;51124;53.394;-6.294;2023-04-01T10:39:34;100319.81;;;19.48;7.72
64698;BME280;51124;53.394;-6.294;2023-04-01T10:42:11;100327.98;;;19.49;7.80
64698;BME280;51124;53.394;-6.294;2023-04-01T10:45:40;100333.31;;;20.11;7.83
64698;BME280;51124;53.394;-6.294;2023-04-01T10:47:37;100335.31;;;19.76;7.67
64698;BME280;51124;53.394;-6.294;2023-04-01T10:50:10;100340.85;;;19.43;7.91
64698;BME280;51124;53.394;-6.294;2023-04-01T10:53:15;100343.29;;;19.28;8.03
64698;BME280;51124;53.394;-6.294;2023-04-01T10:54:45;100344.51;;;18.63;8.05
64698;BME280;51124;53.394;-6.294;2023-04-01T10:57:01;100350.09;;;19.04;7.87
64698;BME280;51124;53.394;-6.294;2023-04-01T10:59:36;100353.75;;;19.66;7.96
64698;BME280;51124;53.394;-6.294;2023-04-01T11:02:49;100359.21;;;19.43;7.78
64698;BME280;51124;53.394;-6.294;2023-04-01T11:04:56;100363.91;;;19.31;7.72
64698;BME280;51124;53.394;-6.294;2023-04-01T11:07:29;100366.34;;;18.93;7.81
64698;BME280;51124;53.394;-6.294;2023-04-01T11:12:37;100375.25;;;19.87;7.80
64698;BME280;51124;53.394;-6.294;2023-04-01T11:16:07;100378.24;;;19.51;7.89
64698;BME280;51124;53.394;-6.294;2023-04-01T11:17:31;100382.39;;;19.91;8.02
64698;BME280;51124;53.394;-6.294;2023-04-01T11:20:02;100385.17;;;19.53;7.99
64698;BME280;51124;53.394;-6.294;2023-04-01T11:22:32;100384.76;;;19.11;7.92
64698;BME280;51124;53.394;-6.294;2023-04-01T11:24:50;100388.66;;;20.51;7.78
64698;BME280;51124;53.394;-6.294;2023-04-01T11:27:21;100396.95;;;19.54;7.56
64698;BME280;51124;53.394;-6.294;2023-04-01T11:30:05;100396.71;;;21.02;7.39
64698;BME280;51124;53.394;-6.294;2023-04-01T11:32:20;100400.40;;;21.33;7.26
64698;BME280;51124;53.394;-6.294;2023-04-01T11:34:56;100406.28;;;20.05;7.57
64698;BME280;51124;53.394;-6.294;2023-04-01T11:37:23;100411.31;;;19.76;7.57
64698;BME280;51124;53.394;-6.294;2023-04-01T11:39:59;100414.87;;;20.13;7.46
64698;BME280;51124;53.394;-6.294;2023-04-01T11:42:22;100423.90;;;19.48;7.67
64698;BME280;51124;53.394;-6.294;2023-04-01T11:44:57;100427.29;;;20.06;7.48
64698;BME280;51124;53.394;-6.294;2023-04-01T11:47:36;100427.73;;;22.48;8.02
64698;BME280;51124;53.394;-6.294;2023-04-01T11:50:04;100431.31;;;22.15;8.66
64698;BME280;51124;53.394;-6.294;2023-04-01T11:52:35;100433.53;;;20.80;8.59
64698;BME280;51124;53.394;-6.294;2023-04-01T11:55:01;100439.69;;;24.06;8.59
64698;BME280;51124;53.394;-6.294;2023-04-01T11:57:35;100444.47;;;24.26;9.22
64698;BME280;51124;53.394;-6.294;2023-04-01T12:00:00;100452.13;;;22.92;9.84
64698;BME280;51124;53.394;-6.294;2023-04-01T12:02:30;100454.76;;;23.35;9.93
64698;BME280;51124;53.394;-6.294;2023-04-01T12:05:37;100459.70;;;23.04;10.06
64698;BME280;51124;53.394;-6.294;2023-04-01T12:07:48;100465.33;;;23.21;9.95
64698;BME280;51124;53.394;-6.294;2023-04-01T12:10:16;100471.05;;;22.18;10.32
64698;BME280;51124;53.394;-6.294;2023-04-01T12:12:38;100474.01;;;22.98;10.25
64698;BME280;51124;53.394;-6.294;2023-04-01T12:15:17;100478.32;;;23.13;10.04
64698;BME280;51124;53.394;-6.294;2023-04-01T12:17:40;100481.33;;;22.19;10.40
64698;BME280;51124;53.394;-6.294;2023-04-01T12:20:24;100484.26;;;23.13;10.12
64698;BME280;51124;53.394;-6.294;2023-04-01T12:22:47;100490.75;;;21.58;10.61
64698;BME280;51124;53.394;-6.294;2023-04-01T12:25:23;100496.45;;;22.38;10.55
64698;BME280;51124;53.394;-6.294;2023-04-01T12:27:45;100499.08;;;23.28;10.31
64698;BME280;51124;53.394;-6.294;2023-04-01T12:30:28;100505.04;;;21.49;10.50
64698;BME280;51124;53.394;-6.294;2023-04-01T12:32:47;100510.49;;;20.33;10.76
64698;BME280;51124;53.394;-6.294;2023-04-01T12:35:20;100516.56;;;19.41;10.93
64698;BME280;51124;53.394;-6.294;2023-04-01T12:37:53;100516.46;;;20.16;10.53
64698;BME280;51124;53.394;-6.294;2023-04-01T12:40:26;100515.20;;;23.30;9.01
64698;BME280;51124;53.394;-6.294;2023-04-01T12:44:56;100516.89;;;25.97;7.77
64698;BME280;51124;53.394;-6.294;2023-04-01T12:46:11;100511.82;;;25.42;8.39
64698;BME280;51124;53.394;-6.294;2023-04-01T12:48:51;100522.86;;;23.93;9.08
64698;BME280;51124;53.394;-6.294;2023-04-01T12:51:46;100530.30;;;24.17;9.13
64698;BME280;51124;53.394;-6.294;2023-04-01T12:53:45;100528.20;;;22.59;9.12
64698;BME280;51124;53.394;-6.294;2023-04-01T12:55:59;100531.54;;;21.41;8.96
64698;BME280;51124;53.394;-6.294;2023-04-01T12:59:01;100536.34;;;20.41;8.76
64698;BME280;51124;53.394;-6.294;2023-04-01T13:01:25;100543.11;;;20.82;8.53
64698;BME280;51124;53.394;-6.294;2023-04-01T13:03:41;100545.72;;;21.41;8.63
64698;BME280;51124;53.394;-6.294;2023-04-01T13:06:22;100542.58;;;20.12;8.28
64698;BME280;51124;53.394;-6.294;2023-04-01T13:08:35;100543.58;;;20.38;8.07
64698;BME280;51124;53.394;-6.294;2023-04-01T13:11:09;100552.59;;;19.70;8.37
64698;BME280;51124;53.394;-6.294;2023-04-01T13:16:11;100559.17;;;20.18;8.36